createdAt,value
2018-11-25T00:01:23.824Z,151.50
2018-11-25T00:03:53.814Z,174.90
2018-11-25T00:06:23.130Z,154.10
2018-11-25T00:08:52.815Z,171.63
2018-11-25T00:11:22.112Z,166.23
2018-11-25T00:13:51.453Z,195.83
2018-11-25T00:16:20.951Z,165.13
2018-11-25T00:18:50.285Z,179.73
2018-11-25T00:21:19.654Z,221.40
2018-11-25T00:23:49.194Z,210.53
2018-11-25T00:26:18.476Z,189.70
2018-11-25T00:28:47.804Z,266.33
2018-11-25T00:31:17.204Z,167.23
2018-11-25T00:33:46.534Z,174.83
2018-11-25T00:36:15.878Z,159.20
2018-11-25T00:38:45.341Z,151.67
2018-11-25T00:41:14.647Z,160.77
2018-11-25T00:43:44.015Z,175.70
2018-11-25T00:46:13.301Z,157.17
2018-11-25T00:48:43.690Z,425.03
2018-11-25T00:51:13.062Z,183.27
2018-11-25T00:53:42.356Z,181.13
2018-11-25T00:56:11.748Z,155.10
2018-11-25T00:58:41.099Z,175.43
2018-11-25T01:01:10.422Z,180.57
2018-11-25T01:03:41.079Z,178.77
2018-11-25T01:06:10.824Z,329.53
2018-11-25T01:08:40.402Z,293.00
2018-11-25T01:11:09.799Z,171.33
2018-11-25T01:13:39.331Z,184.97
2018-11-25T01:16:08.725Z,176.17
2018-11-25T01:18:38.586Z,160.83
2018-11-25T01:21:08.513Z,184.20
2018-11-25T01:23:37.980Z,150.73
2018-11-25T01:26:07.326Z,157.87
2018-11-25T01:28:36.629Z,230.53
2018-11-25T01:31:06.006Z,265.57
2018-11-25T01:33:35.379Z,374.47
2018-11-25T01:36:06.045Z,323.10
2018-11-25T01:38:35.390Z,337.17
2018-11-25T01:41:04.748Z,168.90
2018-11-25T01:43:34.068Z,162.43
2018-11-25T01:46:03.900Z,158.87
2018-11-25T01:48:33.258Z,152.80
2018-11-25T01:51:04.213Z,237.87
2018-11-25T01:53:33.595Z,223.30
2018-11-25T01:56:03.410Z,194.20
2018-11-25T01:58:32.767Z,162.83
2018-11-25T02:01:02.403Z,145.03
2018-11-25T02:03:31.795Z,329.87
2018-11-25T02:06:01.357Z,328.20
2018-11-25T02:08:30.732Z,162.93
2018-11-25T02:11:00.045Z,162.20
2018-11-25T02:13:29.357Z,247.07
2018-11-25T02:15:58.741Z,160.77
2018-11-25T02:18:28.106Z,155.77
2018-11-25T02:20:57.445Z,307.73
2018-11-25T02:23:26.744Z,204.93
2018-11-25T02:25:56.077Z,148.43
2018-11-25T02:28:25.411Z,209.20
2018-11-25T02:30:54.725Z,164.40
2018-11-25T02:33:24.101Z,205.47
2018-11-25T02:35:53.477Z,163.53
2018-11-25T02:38:22.815Z,181.93
2018-11-25T02:40:52.143Z,180.60
2018-11-25T02:43:21.462Z,156.53
2018-11-25T02:45:50.773Z,157.80
2018-11-25T02:48:20.127Z,140.33
2018-11-25T02:50:49.425Z,136.87
2018-11-25T02:53:18.705Z,196.87
2018-11-25T02:55:48.017Z,141.70
2018-11-25T02:58:17.321Z,130.13
2018-11-25T03:00:46.695Z,158.07
2018-11-25T03:03:16.062Z,128.10
2018-11-25T03:05:45.383Z,125.97
2018-11-25T03:08:14.725Z,108.27
2018-11-25T03:10:44.042Z,114.87
2018-11-25T03:13:13.371Z,148.07
2018-11-25T03:15:43.228Z,138.33
2018-11-25T03:18:12.925Z,123.70
2018-11-25T03:20:42.283Z,115.97
2018-11-25T03:23:12.213Z,140.77
2018-11-25T03:25:41.524Z,109.27
2018-11-25T03:28:10.890Z,103.90
2018-11-25T03:30:41.660Z,123.37
2018-11-25T03:33:11.804Z,116.07
2018-11-25T03:35:41.108Z,109.93
2018-11-25T03:38:10.461Z,111.97
2018-11-25T03:40:39.786Z,138.50
2018-11-25T03:43:09.904Z,107.67
2018-11-25T03:45:40.306Z,114.93
2018-11-25T03:48:11.220Z,102.80
2018-11-25T03:50:40.581Z,103.03
2018-11-25T03:53:10.360Z,91.50
2018-11-25T03:55:39.692Z,93.00
2018-11-25T03:58:09.461Z,90.10
2018-11-25T04:00:39.314Z,91.03
2018-11-25T04:03:10.376Z,92.23
2018-11-25T04:05:39.707Z,84.73
2018-11-25T04:08:09.025Z,85.40
2018-11-25T04:10:38.706Z,87.63
2018-11-25T04:13:08.773Z,87.03
2018-11-25T04:15:38.919Z,86.83
2018-11-25T04:18:09.040Z,85.00
2018-11-25T04:20:38.429Z,83.43
2018-11-25T04:23:08.042Z,84.73
2018-11-25T04:25:37.383Z,84.63
2018-11-25T04:28:06.739Z,89.83
2018-11-25T04:30:36.087Z,93.17
2018-11-25T04:33:06.147Z,84.23
2018-11-25T04:35:35.466Z,84.20
2018-11-25T04:38:04.787Z,76.73
2018-11-25T04:40:34.099Z,84.37
2018-11-25T04:43:03.401Z,80.47
2018-11-25T04:45:32.675Z,82.93
2018-11-25T04:48:02.204Z,90.53
2018-11-25T04:50:31.463Z,80.63
2018-11-25T04:53:00.807Z,81.37
2018-11-25T04:55:30.158Z,80.63
2018-11-25T04:57:59.497Z,85.87
2018-11-25T05:00:28.839Z,90.03
2018-11-25T05:02:58.236Z,93.10
2018-11-25T05:05:27.560Z,103.87
2018-11-25T05:07:56.811Z,93.67
2018-11-25T05:10:26.090Z,91.10
2018-11-25T05:12:55.423Z,92.43
2018-11-25T05:15:24.765Z,96.70
2018-11-25T05:17:54.104Z,87.70
2018-11-25T05:20:23.484Z,88.20
2018-11-25T05:22:52.780Z,99.47
2018-11-25T05:25:22.101Z,84.10
2018-11-25T05:27:51.487Z,88.07
2018-11-25T05:30:21.701Z,91.60
2018-11-25T05:32:51.082Z,85.87
2018-11-25T05:35:21.338Z,84.37
2018-11-25T05:37:50.677Z,83.40
2018-11-25T05:40:20.053Z,88.37
2018-11-25T05:42:49.405Z,94.33
2018-11-25T05:45:19.663Z,87.93
2018-11-25T05:47:49.100Z,84.77
2018-11-25T05:50:19.400Z,89.27
2018-11-25T05:52:48.789Z,91.03
2018-11-25T05:55:18.193Z,91.40
2018-11-25T05:57:47.585Z,87.90
2018-11-25T06:00:18.516Z,82.10
2018-11-25T06:02:47.926Z,101.30
2018-11-25T06:05:17.714Z,102.27
2018-11-25T06:07:47.089Z,105.80
2018-11-25T06:10:16.780Z,107.80
2018-11-25T06:12:46.110Z,105.13
2018-11-25T06:15:15.928Z,98.03
2018-11-25T06:17:45.264Z,94.70
2018-11-25T06:20:16.302Z,126.23
2018-11-25T06:22:45.942Z,103.83
2018-11-25T06:25:17.366Z,104.20
2018-11-25T06:27:46.723Z,102.20
2018-11-25T06:30:19.777Z,93.90
2018-11-25T06:32:49.276Z,97.33
2018-11-25T06:35:19.811Z,101.97
2018-11-25T06:37:49.145Z,107.23
2018-11-25T06:40:19.568Z,110.97
2018-11-25T06:42:48.995Z,114.07
2018-11-25T06:45:22.650Z,107.30
2018-11-25T06:47:52.131Z,102.00
2018-11-25T06:50:21.538Z,108.77
2018-11-25T06:52:50.905Z,108.63
2018-11-25T06:55:20.287Z,114.63
2018-11-25T06:57:49.643Z,123.20
2018-11-25T07:00:19.994Z,142.40
2018-11-25T07:02:49.395Z,132.40
2018-11-25T07:05:18.777Z,164.87
2018-11-25T07:07:48.100Z,183.07
2018-11-25T07:10:19.903Z,138.43
2018-11-25T07:12:52.001Z,120.67
2018-11-25T07:15:21.318Z,146.53
2018-11-25T07:20:18.477Z,284.57
2018-11-25T07:22:47.877Z,183.90
2018-11-25T07:25:18.424Z,212.27
2018-11-25T07:27:47.723Z,168.93
2018-11-25T07:30:18.510Z,178.37
2018-11-25T07:32:47.845Z,167.97
2018-11-25T07:35:17.251Z,167.50
2018-11-25T07:37:46.592Z,175.23
2018-11-25T07:40:17.698Z,270.50
2018-11-25T07:42:47.115Z,145.93
2018-11-25T07:45:17.679Z,165.33
2018-11-25T07:47:47.159Z,181.53
2018-11-25T07:50:16.752Z,170.73
2018-11-25T07:52:50.999Z,142.60
2018-11-25T07:55:22.437Z,140.93
2018-11-25T07:57:52.721Z,353.97
2018-11-25T08:00:23.789Z,185.77
2018-11-25T08:02:53.178Z,277.33
2018-11-25T08:05:23.523Z,162.40
2018-11-25T08:07:52.875Z,125.33
2018-11-25T08:10:22.294Z,126.70
2018-11-25T08:12:51.633Z,326.70
2018-11-25T08:15:21.256Z,351.57
2018-11-25T08:17:50.673Z,313.53
2018-11-25T08:20:20.996Z,244.83
2018-11-25T08:22:50.559Z,369.23
2018-11-25T08:25:20.844Z,247.43
2018-11-25T08:27:50.192Z,142.40
2018-11-25T08:30:20.530Z,163.60
2018-11-25T08:32:50.158Z,101.80
2018-11-25T08:35:19.779Z,101.53
2018-11-25T08:37:49.196Z,109.73
2018-11-25T08:40:20.849Z,146.83
2018-11-25T08:42:50.187Z,114.50
2018-11-25T08:45:19.612Z,120.43
2018-11-25T08:47:48.988Z,88.70
2018-11-25T08:50:19.517Z,95.63
2018-11-25T08:52:50.195Z,106.77
2018-11-25T08:55:21.478Z,104.33
2018-11-25T08:57:50.820Z,92.50
2018-11-25T09:00:23.084Z,130.77
2018-11-25T09:02:53.408Z,156.50
2018-11-25T09:05:22.812Z,86.63
2018-11-25T09:07:52.178Z,129.30
2018-11-25T09:10:22.382Z,88.30
2018-11-25T09:12:56.313Z,83.77
2018-11-25T09:15:26.540Z,86.93
2018-11-25T09:17:55.944Z,96.00
2018-11-25T09:20:25.326Z,79.57
2018-11-25T09:22:55.008Z,83.70
2018-11-25T09:25:26.577Z,77.53
2018-11-25T09:27:56.349Z,117.63
2018-11-25T09:30:26.718Z,147.03
2018-11-25T09:32:56.106Z,125.47
2018-11-25T09:35:25.757Z,99.57
2018-11-25T09:37:55.103Z,71.13
2018-11-25T09:40:25.602Z,70.10
2018-11-25T09:42:54.958Z,70.90
2018-11-25T09:45:24.302Z,74.23
2018-11-25T09:47:53.630Z,80.40
2018-11-25T09:50:23.999Z,77.63
2018-11-25T09:52:53.361Z,74.30
2018-11-25T09:55:23.939Z,82.97
2018-11-25T09:57:57.571Z,82.97
2018-11-25T10:00:28.733Z,89.07
2018-11-25T10:02:58.072Z,88.87
2018-11-25T10:05:27.453Z,79.63
2018-11-25T10:07:56.923Z,75.33
2018-11-25T10:10:26.369Z,77.23
2018-11-25T10:12:55.665Z,96.27
2018-11-25T10:15:29.601Z,71.13
2018-11-25T10:18:00.032Z,76.33
2018-11-25T10:20:30.807Z,74.97
2018-11-25T10:23:00.240Z,76.73
2018-11-25T10:25:29.562Z,74.97
2018-11-25T10:27:58.960Z,78.23
2018-11-25T10:30:29.653Z,74.90
2018-11-25T10:33:01.962Z,73.40
2018-11-25T10:35:31.341Z,74.13
2018-11-25T10:38:00.677Z,75.50
2018-11-25T10:40:29.995Z,69.37
2018-11-25T10:42:59.373Z,74.00
2018-11-25T10:45:29.294Z,84.73
2018-11-25T10:47:59.008Z,90.77
2018-11-25T10:50:28.371Z,92.53
2018-11-25T10:52:57.702Z,86.97
2018-11-25T10:55:27.445Z,83.17
2018-11-25T10:57:56.828Z,94.47
2018-11-25T11:00:33.822Z,84.37
2018-11-25T11:03:08.691Z,85.87
2018-11-25T11:05:43.206Z,79.73
2018-11-25T11:08:12.574Z,74.53
2018-11-25T11:10:41.924Z,77.60
2018-11-25T11:13:11.266Z,73.33
2018-11-25T11:15:41.532Z,76.23
2018-11-25T11:18:11.038Z,83.13
2018-11-25T11:20:40.440Z,81.63
2018-11-25T11:23:09.776Z,76.57
2018-11-25T11:25:39.111Z,83.80
2018-11-25T11:28:08.488Z,76.47
2018-11-25T11:30:38.698Z,70.63
2018-11-25T11:33:08.350Z,75.10
2018-11-25T11:35:37.735Z,72.40
2018-11-25T11:38:07.083Z,70.60
2018-11-25T11:40:36.418Z,66.50
2018-11-25T11:43:06.007Z,69.33
2018-11-25T11:45:35.348Z,67.80
2018-11-25T11:48:05.670Z,68.37
2018-11-25T11:50:35.005Z,71.83
2018-11-25T11:53:04.473Z,71.17
2018-11-25T11:55:33.804Z,74.53
2018-11-25T11:58:03.285Z,80.90
2018-11-25T12:00:32.852Z,75.30
2018-11-25T12:03:02.223Z,73.60
2018-11-25T12:05:31.948Z,66.83
2018-11-25T12:08:01.277Z,75.67
2018-11-25T12:10:30.599Z,77.50
2018-11-25T12:12:59.917Z,72.67
2018-11-25T12:15:31.503Z,76.90
2018-11-25T12:18:00.842Z,73.57
2018-11-25T12:20:31.557Z,73.37
2018-11-25T12:23:01.256Z,71.33
2018-11-25T12:25:30.780Z,74.27
2018-11-25T12:28:00.188Z,70.43
2018-11-25T12:30:29.940Z,73.47
2018-11-25T12:32:59.325Z,74.27
2018-11-25T12:35:29.367Z,76.03
2018-11-25T12:37:58.701Z,69.53
2018-11-25T12:40:28.528Z,77.73
2018-11-25T12:42:58.818Z,79.40
2018-11-25T12:45:28.948Z,77.83
2018-11-25T12:47:58.301Z,71.67
2018-11-25T12:50:28.007Z,84.07
2018-11-25T12:52:57.413Z,77.87
2018-11-25T12:55:28.610Z,83.10
2018-11-25T12:57:58.293Z,74.50
2018-11-25T13:00:44.099Z,69.93
2018-11-25T13:03:13.921Z,68.80
2018-11-25T13:05:46.402Z,66.20
2018-11-25T13:08:13.833Z,75.77
2018-11-25T13:10:43.192Z,72.17
2018-11-25T13:13:12.815Z,70.20
2018-11-25T13:15:43.152Z,72.97
2018-11-25T13:18:12.501Z,72.67
2018-11-25T13:20:41.897Z,65.63
2018-11-25T13:23:11.248Z,58.07
2018-11-25T13:25:40.605Z,60.97
2018-11-25T13:28:09.936Z,56.47
2018-11-25T13:30:41.183Z,58.57
2018-11-25T13:33:11.032Z,55.23
2018-11-25T13:35:40.752Z,56.97
2018-11-25T13:38:10.100Z,60.13
2018-11-25T13:40:39.609Z,63.60
2018-11-25T13:43:09.052Z,59.90
2018-11-25T13:45:38.939Z,66.90
2018-11-25T13:48:09.355Z,70.00
2018-11-25T13:50:38.748Z,61.77
2018-11-25T13:53:08.138Z,60.10
2018-11-25T13:55:37.568Z,64.50
2018-11-25T13:58:07.136Z,67.17
2018-11-25T14:00:48.301Z,60.50
2018-11-25T14:03:30.500Z,62.90
2018-11-25T14:05:59.825Z,68.33
2018-11-25T14:08:29.358Z,66.17
2018-11-25T14:11:04.091Z,68.73
2018-11-25T14:13:33.967Z,68.23
2018-11-25T14:16:03.371Z,66.67
2018-11-25T14:18:32.942Z,67.00
2018-11-25T14:21:02.299Z,69.07
2018-11-25T14:23:31.638Z,69.17
2018-11-25T14:26:04.198Z,68.20
2018-11-25T14:28:34.112Z,74.27
2018-11-25T14:31:03.521Z,68.97
2018-11-25T14:33:33.115Z,68.17
2018-11-25T14:36:02.470Z,74.53
2018-11-25T14:38:31.841Z,74.43
2018-11-25T14:41:01.203Z,71.20
2018-11-25T14:43:30.579Z,79.53
2018-11-25T14:45:59.902Z,73.17
2018-11-25T14:48:29.247Z,80.17
2018-11-25T14:50:58.600Z,84.50
2018-11-25T14:53:27.933Z,85.70
2018-11-25T14:55:57.299Z,84.23
2018-11-25T14:58:26.712Z,92.13
2018-11-25T15:00:56.000Z,90.40
2018-11-25T15:03:25.328Z,104.57
2018-11-25T15:05:54.731Z,101.47
2018-11-25T15:08:25.696Z,107.53
2018-11-25T15:10:55.032Z,109.93
2018-11-25T15:13:24.328Z,112.13
2018-11-25T15:15:53.848Z,104.23
2018-11-25T15:18:23.264Z,105.53
2018-11-25T15:20:52.575Z,107.03
2018-11-25T15:23:21.992Z,102.83
2018-11-25T15:25:53.466Z,111.77
2018-11-25T15:28:22.927Z,105.33
2018-11-25T15:30:52.260Z,98.27
2018-11-25T15:33:21.612Z,110.07
2018-11-25T15:35:50.960Z,100.47
2018-11-25T15:38:20.738Z,95.73
2018-11-25T15:40:50.114Z,103.90
2018-11-25T15:43:19.512Z,98.47
2018-11-25T15:45:48.851Z,99.37
2018-11-25T15:48:21.527Z,105.60
2018-11-25T15:50:50.946Z,106.47
2018-11-25T15:53:20.451Z,95.00
2018-11-25T15:55:54.594Z,94.90
2018-11-25T15:58:24.001Z,98.40
2018-11-25T16:00:53.448Z,102.50
2018-11-25T16:03:22.830Z,94.50
2018-11-25T16:05:55.550Z,106.93
2018-11-25T16:08:24.941Z,108.17
2018-11-25T16:10:54.400Z,103.87
2018-11-25T16:13:23.866Z,96.53
2018-11-25T16:15:53.809Z,99.17
2018-11-25T16:18:23.223Z,94.67
2018-11-25T16:20:52.608Z,89.90
2018-11-25T16:23:21.955Z,90.43
2018-11-25T16:25:53.344Z,91.67
2018-11-25T16:28:34.861Z,82.40
2018-11-25T16:31:04.263Z,87.90
2018-11-25T16:33:33.604Z,90.93
2018-11-25T16:36:03.022Z,90.37
2018-11-25T16:38:32.335Z,84.70
2018-11-25T16:41:01.638Z,81.63
2018-11-25T16:43:31.039Z,91.00
2018-11-25T16:46:00.452Z,81.43
2018-11-25T16:48:29.791Z,82.40
2018-11-25T16:50:59.137Z,79.07
2018-11-25T16:53:28.703Z,94.63
2018-11-25T16:55:58.074Z,99.50
2018-11-25T16:58:27.453Z,97.87
2018-11-25T17:00:56.806Z,100.87
2018-11-25T17:03:26.159Z,101.53
2018-11-25T17:05:55.800Z,103.30
2018-11-25T17:08:33.066Z,105.80
2018-11-25T17:11:02.435Z,132.53
2018-11-25T17:13:31.950Z,118.27
2018-11-25T17:16:01.356Z,142.73
2018-11-25T17:18:30.751Z,137.60
2018-11-25T17:21:00.211Z,158.13
2018-11-25T17:23:29.605Z,177.90
2018-11-25T17:25:58.985Z,190.60
2018-11-25T17:28:28.316Z,229.53
2018-11-25T17:30:57.728Z,192.30
2018-11-25T17:33:27.128Z,224.17
2018-11-25T17:35:56.503Z,223.60
2018-11-25T17:38:25.855Z,269.73
2018-11-25T17:40:55.304Z,255.70
2018-11-25T17:43:25.718Z,240.67
2018-11-25T17:45:55.053Z,255.07
2018-11-25T17:48:24.394Z,220.73
2018-11-25T17:50:53.777Z,229.50
2018-11-25T17:53:23.081Z,224.80
2018-11-25T17:55:52.726Z,273.20
2018-11-25T17:58:22.104Z,243.07
2018-11-25T18:01:06.800Z,260.90
2018-11-25T18:03:37.744Z,298.70
2018-11-25T18:06:07.779Z,402.47
2018-11-25T18:08:37.124Z,351.90
2018-11-25T18:11:06.533Z,235.63
2018-11-25T18:13:38.191Z,246.50
2018-11-25T18:16:09.271Z,227.97
2018-11-25T18:18:50.624Z,261.13
2018-11-25T18:21:22.043Z,279.73
2018-11-25T18:23:51.983Z,236.27
2018-11-25T18:26:21.359Z,233.57
2018-11-25T18:28:51.072Z,242.77
2018-11-25T18:31:20.511Z,229.40
2018-11-25T18:33:49.982Z,194.63
2018-11-25T18:36:19.346Z,207.87
2018-11-25T18:38:48.786Z,212.87
2018-11-25T18:41:18.136Z,222.90
2018-11-25T18:43:47.511Z,212.27
2018-11-25T18:46:16.872Z,220.07
2018-11-25T18:48:48.078Z,219.07
2018-11-25T18:51:17.695Z,195.67
2018-11-25T18:53:48.425Z,219.90
2018-11-25T18:56:16.495Z,215.57
2018-11-25T18:58:46.199Z,232.27
2018-11-25T19:01:19.146Z,216.33
2018-11-25T19:03:48.564Z,197.13
2018-11-25T19:06:17.947Z,236.40
2018-11-25T19:08:47.289Z,234.53
2018-11-25T19:11:16.743Z,259.33
2018-11-25T19:13:46.092Z,238.37
2018-11-25T19:16:15.707Z,196.30
2018-11-25T19:18:45.011Z,194.77
2018-11-25T19:21:14.718Z,195.63
2018-11-25T19:23:44.071Z,198.60
2018-11-25T19:26:13.423Z,175.77
2018-11-25T19:28:42.788Z,175.77
2018-11-25T19:31:12.148Z,166.30
2018-11-25T19:33:42.174Z,167.17
2018-11-25T19:36:12.258Z,162.93
2018-11-25T19:38:41.604Z,167.87
2018-11-25T19:41:11.130Z,169.20
2018-11-25T19:43:40.679Z,168.53
2018-11-25T19:46:10.113Z,157.60
2018-11-25T19:48:40.656Z,154.20
2018-11-25T19:51:17.278Z,153.83
2018-11-25T19:53:40.555Z,149.83
2018-11-25T19:56:09.873Z,152.30
2018-11-25T19:58:39.899Z,152.53
2018-11-25T20:01:09.335Z,158.40
2018-11-25T20:03:39.245Z,159.00
2018-11-25T20:06:09.402Z,175.30
2018-11-25T20:08:39.320Z,172.73
2018-11-25T20:11:08.719Z,177.33
2018-11-25T20:13:38.284Z,182.47
2018-11-25T20:16:12.836Z,153.47
2018-11-25T20:18:43.439Z,150.13
2018-11-25T20:21:18.051Z,150.10
2018-11-25T20:23:47.457Z,158.03
2018-11-25T20:26:16.763Z,150.50
2018-11-25T20:28:46.060Z,166.30
2018-11-25T20:31:15.400Z,159.70
2018-11-25T20:33:52.178Z,157.97
2018-11-25T20:36:18.493Z,163.77
2018-11-25T20:38:53.171Z,164.93
2018-11-25T20:41:22.572Z,161.20
2018-11-25T20:43:51.948Z,152.80
2018-11-25T20:46:26.531Z,158.10
2018-11-25T20:48:55.921Z,164.03
2018-11-25T20:51:30.886Z,160.20
2018-11-25T20:54:01.284Z,161.20
2018-11-25T20:56:30.633Z,156.17
2018-11-25T20:59:00.568Z,156.77
2018-11-25T21:01:30.608Z,161.20
2018-11-25T21:04:00.228Z,155.67
2018-11-25T21:06:29.541Z,170.87
2018-11-25T21:08:59.791Z,153.83
2018-11-25T21:11:29.727Z,146.27
2018-11-25T21:13:59.355Z,142.60
2018-11-25T21:16:28.723Z,139.83
2018-11-25T21:18:57.997Z,153.00
2018-11-25T21:21:27.386Z,152.87
2018-11-25T21:23:56.748Z,142.33
2018-11-25T21:26:26.121Z,134.30
2018-11-25T21:28:55.487Z,144.73
2018-11-25T21:31:24.935Z,146.23
2018-11-25T21:33:54.296Z,146.07
2018-11-25T21:36:23.575Z,135.33
2018-11-25T21:38:52.966Z,145.60
2018-11-25T21:41:22.325Z,146.87
2018-11-25T21:43:51.724Z,138.40
2018-11-25T21:46:21.147Z,147.10
2018-11-25T21:48:50.523Z,135.90
2018-11-25T21:51:19.893Z,150.23
2018-11-25T21:53:49.247Z,153.27
2018-11-25T21:56:18.669Z,153.53
2018-11-25T21:58:48.066Z,149.70
2018-11-25T22:01:17.547Z,144.67
2018-11-25T22:03:47.311Z,150.80
2018-11-25T22:06:16.816Z,145.20
2018-11-25T22:08:48.090Z,154.30
2018-11-25T22:11:19.135Z,138.33
2018-11-25T22:13:50.658Z,151.53
2018-11-25T22:16:20.079Z,145.63
2018-11-25T22:18:50.031Z,135.67
2018-11-25T22:21:19.360Z,134.70
2018-11-25T22:23:48.685Z,128.17
2018-11-25T22:26:19.753Z,140.77
2018-11-25T22:28:49.119Z,143.10
2018-11-25T22:31:18.569Z,150.37
2018-11-25T22:33:48.316Z,145.17
2018-11-25T22:36:18.169Z,129.10
2018-11-25T22:38:47.697Z,132.60
2018-11-25T22:41:17.204Z,127.40
2018-11-25T22:43:46.647Z,133.27
2018-11-25T22:46:16.215Z,119.93
2018-11-25T22:48:45.742Z,121.83
2018-11-25T22:51:15.639Z,125.07
2018-11-25T22:53:45.054Z,112.77
2018-11-25T22:56:14.609Z,113.53
2018-11-25T22:58:44.053Z,115.83
2018-11-25T23:01:13.526Z,111.47
2018-11-25T23:03:43.271Z,113.60
2018-11-25T23:06:23.492Z,112.73
2018-11-25T23:08:56.528Z,110.57
2018-11-25T23:11:26.070Z,113.43
2018-11-25T23:13:55.448Z,111.57
2018-11-25T23:16:24.802Z,109.37
2018-11-25T23:18:54.124Z,108.77
2018-11-25T23:21:23.446Z,102.17
2018-11-25T23:23:52.786Z,101.47
2018-11-25T23:26:22.552Z,110.90
2018-11-25T23:28:51.857Z,102.30
2018-11-25T23:31:21.165Z,97.97
2018-11-25T23:33:50.541Z,108.07
2018-11-25T23:36:19.866Z,106.33
2018-11-25T23:38:49.254Z,106.53
2018-11-25T23:41:18.619Z,97.10
2018-11-25T23:43:47.898Z,103.77
2018-11-25T23:46:17.194Z,100.43
2018-11-25T23:48:46.535Z,109.43
2018-11-25T23:51:16.147Z,109.27
2018-11-25T23:53:45.462Z,102.73
2018-11-25T23:56:14.731Z,101.33
2018-11-25T23:58:44.056Z,106.13
